Большие Калмыки

Карта отелей и гостиниц, располагающихся рядом с аэропортом Большие Калмыки :

Большие Калмыки Тульская область 54° 2' 0.1788" N, 37° 50' 0.42" E
Большие Калмыки Тульская область 54° 2' 0.1788" N, 37° 50' 0.42" E
Код аэродрома ИКАО
ZEH9
Код аэродрома RU
ЗЕХ9
Координаты
N54.03338° E037.83345°
Превышение над уровнем моря
218
Основная полоса
11/29
Курс магнитный
105/285
Длина основной ВПП
400
Ширина основной ВПП
18
Покрытие основной ВПП
Твёрдое (асфальт)
Освещение ВПП
Нет
Тип: 
Аэродром
Класс аэродрома: 
Принадлежность: 
ГА
Статус: 
Недействующий
Сайт: 
E-mail аэродрома: 
Страна: 
Россия
Регион: 
Тульская область
Город: 
Дополнительная информация: 
Бывшая площадка АХР.


Найти трансфер

С помощью этой формы Вы можете найти трансфер из аэропорта Большие Калмыки в город, аэропорт или вокзал:

Погода в аэропортах:

Авиационная погода в Воронеже

Регион: 
Погода METAR: 
UUOO 212300Z 08004MPS 9999 -SHRA BKN011 BKN///CB 09/08 Q1000 R12/290155 NOSIG RMK QFE736
Время наблюдения
2022-05-21T23:00:00Z
Температура C
9.0
Точка росы
8.0
Направление ветра
80
Скорость ветра (узлы)
8
Метео видимость
6.21
Облачность
BKN
Нижняя граница облачности (футы)
1100
Явления погоды
-SHRA
Условия полета
MVFR
Аэропорт подробнее: 
BKN – значительная (рассеянная, разорванная) облачность;
-SHRA - слабый ливневой дождь;

Авиационная погода в Ивало

Регион: 
Погода METAR: 
EFIV 212250Z AUTO 11003KT 9999 -RA FEW016 BKN035 07/06 Q1011
Время наблюдения
2022-05-21T22:50:00Z
Температура C
7.0
Точка росы
6.0
Направление ветра
110
Скорость ветра (узлы)
3
Метео видимость
6.21
Облачность
FEW
BKN
Нижняя граница облачности (футы)
1600
3500
Явления погоды
-RA
Условия полета
VFR
FEW – незначительная облачность; BKN – значительная (рассеянная, разорванная) облачность;
-RA - слабый дождь;

Авиационная погода в Платове

Регион: 
Погода METAR: 
URRP 212300Z 26010MPS 9999 -SHRA SCT///CB 14/10 Q1005 R23/CLRD70 TEMPO VRB17G22MPS 3000 -TSRAGR SCT003 SCT020CB RMK QFE746/0995
Время наблюдения
2022-05-21T23:00:00Z
Температура C
14.0
Точка росы
10.0
Направление ветра
260
Скорость ветра (узлы)
19
Метео видимость
6.21
Облачность
Нижняя граница облачности (футы)
Явления погоды
-SHRA
Условия полета
Аэропорт подробнее: 
-SHRA - слабый ливневой дождь;

Авиационная погода в Белгороде

Регион: 
Погода METAR: 
UUOB 212300Z 03001MPS 3000 -SHRA BR OVC010CB 13/12 Q0997 R11/290060 NOSIG
Время наблюдения
2022-05-21T23:00:00Z
Температура C
13.0
Точка росы
12.0
Направление ветра
30
Скорость ветра (узлы)
2
Метео видимость
1.86
Облачность
OVC
Нижняя граница облачности (футы)
1000
Явления погоды
-SHRA BR
Условия полета
IFR
Аэропорт подробнее: 
OVC – сплошная облачность;
-SHRA - слабый ливневой дождь; BR – дымка (видимость от 1 до 9 км);